createdAt,value
2022-08-02T00:00:25.456Z,1015.09
2022-08-02T00:01:24.491Z,1015.09
2022-08-02T00:02:24.422Z,1015.07
2022-08-02T00:03:24.812Z,1015.08
2022-08-02T00:04:24.432Z,1015.07
2022-08-02T00:05:24.412Z,1015.07
2022-08-02T00:06:24.366Z,1015.06
2022-08-02T00:07:24.355Z,1015.06
2022-08-02T00:08:24.390Z,1015.06
2022-08-02T00:09:24.346Z,1015.02
2022-08-02T00:10:25.078Z,1015.02
2022-08-02T00:11:24.327Z,1015.08
2022-08-02T00:12:24.320Z,1015.09
2022-08-02T00:13:24.294Z,1015.06
2022-08-02T00:14:24.276Z,1015.09
2022-08-02T00:15:24.303Z,1015.13
2022-08-02T00:16:38.314Z,1015.08
2022-08-02T00:17:25.248Z,1015.08
2022-08-02T00:18:24.240Z,1015.07
2022-08-02T00:19:24.227Z,1015.08
2022-08-02T00:20:24.219Z,1015.08
2022-08-02T00:21:24.228Z,1015.09
2022-08-02T00:22:24.250Z,1015.01
2022-08-02T00:23:24.183Z,1015.01
2022-08-02T00:24:29.163Z,1015.00
2022-08-02T00:25:24.170Z,1014.99
2022-08-02T00:26:24.174Z,1014.98
2022-08-02T00:27:24.171Z,1014.91
2022-08-02T00:28:27.311Z,1014.99
2022-08-02T00:29:24.118Z,1015.02
2022-08-02T00:30:24.132Z,1014.98
2022-08-02T00:31:24.149Z,1015.01
2022-08-02T00:32:24.083Z,1014.95
2022-08-02T00:34:05.593Z,1014.99
2022-08-02T00:34:29.961Z,1014.94
2022-08-02T00:35:25.049Z,1014.97
2022-08-02T00:36:24.078Z,1014.93
2022-08-02T00:37:24.031Z,1014.95
2022-08-02T00:38:24.022Z,1014.91
2022-08-02T00:39:34.677Z,1014.83
2022-08-02T00:40:25.046Z,1014.90
2022-08-02T00:41:24.006Z,1014.84
2022-08-02T00:42:23.977Z,1014.87
2022-08-02T00:43:23.961Z,1014.87
2022-08-02T00:44:23.965Z,1014.86
2022-08-02T00:46:02.103Z,1014.89
2022-08-02T00:46:24.952Z,1014.87
2022-08-02T00:47:23.920Z,1014.91
2022-08-02T00:48:23.970Z,1014.91
2022-08-02T00:49:23.941Z,1014.90
2022-08-02T00:50:23.939Z,1014.88
2022-08-02T00:51:23.868Z,1014.89
2022-08-02T00:52:23.897Z,1014.90
2022-08-02T00:53:23.854Z,1014.88
2022-08-02T00:54:23.871Z,1014.93
2022-08-02T00:55:30.901Z,1014.88
2022-08-02T00:56:24.827Z,1014.90
2022-08-02T00:57:23.813Z,1014.88
2022-08-02T00:58:23.818Z,1014.91
2022-08-02T00:59:23.820Z,1014.98
2022-08-02T01:00:23.789Z,1014.97
2022-08-02T01:01:24.832Z,1014.93
2022-08-02T01:02:23.780Z,1014.96
2022-08-02T01:03:23.748Z,1015.00
2022-08-02T01:04:30.016Z,1014.96
2022-08-02T01:05:24.741Z,1014.96
2022-08-02T01:06:23.716Z,1014.96
2022-08-02T01:07:23.692Z,1014.92
2022-08-02T01:08:29.506Z,1014.91
2022-08-02T01:09:24.682Z,1014.94
2022-08-02T01:10:23.711Z,1014.92
2022-08-02T01:11:23.665Z,1014.95
2022-08-02T01:12:23.647Z,1014.92
2022-08-02T01:13:23.893Z,1014.92
2022-08-02T01:14:23.624Z,1014.87
2022-08-02T01:15:23.606Z,1014.87
2022-08-02T01:16:24.625Z,1014.88
2022-08-02T01:17:23.594Z,1014.81
2022-08-02T01:18:23.573Z,1014.81
2022-08-02T01:19:23.594Z,1014.83
2022-08-02T01:20:23.560Z,1014.83
2022-08-02T01:21:23.545Z,1014.78
2022-08-02T01:22:34.664Z,1014.75
2022-08-02T01:23:24.548Z,1014.70
2022-08-02T01:24:23.525Z,1014.72
2022-08-02T01:25:23.506Z,1014.74
2022-08-02T01:26:23.495Z,1014.71
2022-08-02T01:27:23.494Z,1014.70
2022-08-02T01:28:23.494Z,1014.76
2022-08-02T01:29:23.469Z,1014.76
2022-08-02T01:30:23.447Z,1014.77
2022-08-02T01:31:23.482Z,1014.73
2022-08-02T01:32:23.432Z,1014.72
2022-08-02T01:33:23.409Z,1014.75
2022-08-02T01:34:23.421Z,1014.74
2022-08-02T01:35:24.350Z,1014.77
2022-08-02T01:36:23.381Z,1014.73
2022-08-02T01:37:23.360Z,1014.74
2022-08-02T01:38:23.370Z,1014.74
2022-08-02T01:39:26.888Z,1014.73
2022-08-02T01:40:24.343Z,1014.72
2022-08-02T01:41:23.322Z,1014.70
2022-08-02T01:42:23.315Z,1014.70
2022-08-02T01:43:23.323Z,1014.73
2022-08-02T01:44:27.527Z,1014.66
2022-08-02T01:45:23.315Z,1014.60
2022-08-02T01:46:23.274Z,1014.59
2022-08-02T01:47:23.287Z,1014.60
2022-08-02T01:48:23.253Z,1014.56
2022-08-02T01:49:23.306Z,1014.58
2022-08-02T01:50:23.228Z,1014.59
2022-08-02T01:51:23.214Z,1014.59
2022-08-02T01:52:23.198Z,1014.60
2022-08-02T01:53:23.355Z,1014.56
2022-08-02T01:54:23.187Z,1014.58
2022-08-02T01:55:23.195Z,1014.59
2022-08-02T01:56:24.154Z,1014.57
2022-08-02T01:57:23.148Z,1014.53
2022-08-02T01:58:23.127Z,1014.63
2022-08-02T01:59:23.116Z,1014.61
2022-08-02T02:00:23.199Z,1014.66
2022-08-02T02:01:23.200Z,1014.61
2022-08-02T02:02:23.086Z,1014.62
2022-08-02T02:03:23.078Z,1014.58
2022-08-02T02:04:23.067Z,1014.58
2022-08-02T02:05:23.061Z,1014.61
2022-08-02T02:06:23.053Z,1014.58
2022-08-02T02:07:23.110Z,1014.59
2022-08-02T02:08:27.051Z,1014.57
2022-08-02T02:09:23.025Z,1014.60
2022-08-02T02:10:23.005Z,1014.57
2022-08-02T02:12:11.470Z,1014.61
2022-08-02T02:12:24.003Z,1014.60
2022-08-02T02:13:33.203Z,1014.60
2022-08-02T02:14:23.970Z,1014.60
2022-08-02T02:15:22.940Z,1014.58
2022-08-02T02:16:22.950Z,1014.57
2022-08-02T02:18:10.879Z,1014.60
2022-08-02T02:18:23.930Z,1014.53
2022-08-02T02:19:22.962Z,1014.56
2022-08-02T02:20:22.902Z,1014.49
2022-08-02T02:21:22.931Z,1014.54
2022-08-02T02:22:22.874Z,1014.53
2022-08-02T02:23:25.845Z,1014.51
2022-08-02T02:24:22.854Z,1014.56
2022-08-02T02:25:27.550Z,1014.54
2022-08-02T02:26:31.532Z,1014.52
2022-08-02T02:27:23.804Z,1014.59
2022-08-02T02:28:22.807Z,1014.53
2022-08-02T02:29:22.795Z,1014.52
2022-08-02T02:30:22.790Z,1014.51
2022-08-02T02:31:22.789Z,1014.49
2022-08-02T02:32:22.785Z,1014.48
2022-08-02T02:33:26.426Z,1014.45
2022-08-02T02:34:23.761Z,1014.44
2022-08-02T02:35:22.727Z,1014.49
2022-08-02T02:36:22.748Z,1014.49
2022-08-02T02:37:23.673Z,1014.52
2022-08-02T02:38:22.693Z,1014.48
2022-08-02T02:39:22.679Z,1014.48
2022-08-02T02:40:22.668Z,1014.45
2022-08-02T02:41:22.658Z,1014.42
2022-08-02T02:42:22.670Z,1014.40
2022-08-02T02:43:22.651Z,1014.37
2022-08-02T02:44:22.638Z,1014.31
2022-08-02T02:45:22.642Z,1014.28
2022-08-02T02:46:22.601Z,1014.29
2022-08-02T02:47:22.588Z,1014.26
2022-08-02T02:48:23.571Z,1014.21
2022-08-02T02:49:22.603Z,1014.20
2022-08-02T02:50:22.591Z,1014.17
2022-08-02T02:51:22.549Z,1014.17
2022-08-02T02:52:22.547Z,1014.20
2022-08-02T02:53:22.527Z,1014.18
2022-08-02T02:54:30.938Z,1014.18
2022-08-02T02:55:23.524Z,1014.12
2022-08-02T02:56:22.495Z,1014.12
2022-08-02T02:57:22.493Z,1014.10
2022-08-02T02:58:22.484Z,1014.14
2022-08-02T02:59:23.483Z,1014.10
2022-08-02T03:00:22.456Z,1014.17
2022-08-02T03:01:55.401Z,1014.17
2022-08-02T03:02:23.426Z,1014.13
2022-08-02T03:03:22.445Z,1014.11
2022-08-02T03:04:22.407Z,1014.12
2022-08-02T03:05:22.446Z,1014.16
2022-08-02T03:06:22.402Z,1014.21
2022-08-02T03:07:22.367Z,1014.12
2022-08-02T03:08:22.356Z,1014.18
2022-08-02T03:09:22.362Z,1014.18
2022-08-02T03:10:22.379Z,1014.20
2022-08-02T03:11:22.337Z,1014.18
2022-08-02T03:12:24.055Z,1014.19
2022-08-02T03:13:22.363Z,1014.21
2022-08-02T03:14:22.328Z,1014.21
2022-08-02T03:15:22.297Z,1014.21
2022-08-02T03:16:22.295Z,1014.22
2022-08-02T03:17:22.266Z,1014.18
2022-08-02T03:18:22.251Z,1014.16
2022-08-02T03:19:22.259Z,1014.17
2022-08-02T03:20:22.308Z,1014.20
2022-08-02T03:21:22.288Z,1014.20
2022-08-02T03:22:22.198Z,1014.20
2022-08-02T03:23:22.227Z,1014.23
2022-08-02T03:24:27.680Z,1014.20
2022-08-02T03:25:23.193Z,1014.22
2022-08-02T03:26:22.155Z,1014.25
2022-08-02T03:27:22.143Z,1014.21
2022-08-02T03:28:22.133Z,1014.22
2022-08-02T03:29:22.273Z,1014.19
2022-08-02T03:30:22.122Z,1014.17
2022-08-02T03:31:22.125Z,1014.14
2022-08-02T03:32:22.096Z,1014.14
2022-08-02T03:33:22.093Z,1014.12
2022-08-02T03:34:22.081Z,1014.14
2022-08-02T03:35:24.180Z,1014.15
2022-08-02T03:36:22.043Z,1014.14
2022-08-02T03:37:22.070Z,1014.11
2022-08-02T03:38:22.026Z,1014.10
2022-08-02T03:39:22.007Z,1014.10
2022-08-02T03:40:22.000Z,1014.02
2022-08-02T03:41:22.985Z,1014.06
2022-08-02T03:42:22.013Z,1014.08
2022-08-02T03:43:21.965Z,1014.05
2022-08-02T03:44:21.976Z,1014.06
2022-08-02T03:45:21.954Z,1014.10
2022-08-02T03:46:21.978Z,1014.11
2022-08-02T03:47:21.930Z,1014.08
2022-08-02T03:48:34.896Z,1014.13
2022-08-02T03:49:22.962Z,1014.11
2022-08-02T03:50:21.885Z,1014.12
2022-08-02T03:51:21.878Z,1014.17
2022-08-02T03:52:21.865Z,1014.13
2022-08-02T03:53:21.886Z,1014.16
2022-08-02T03:54:21.841Z,1014.17
2022-08-02T03:55:21.865Z,1014.15
2022-08-02T03:56:23.545Z,1014.16
2022-08-02T03:57:21.833Z,1014.16
2022-08-02T03:58:21.799Z,1014.17
2022-08-02T03:59:21.813Z,1014.14
2022-08-02T04:00:21.812Z,1014.15
2022-08-02T04:01:21.789Z,1014.19
2022-08-02T04:02:21.815Z,1014.14
2022-08-02T04:03:21.742Z,1014.18
2022-08-02T04:04:21.728Z,1014.13
2022-08-02T04:05:21.777Z,1014.16
2022-08-02T04:06:27.153Z,1014.13
2022-08-02T04:08:34.574Z,1014.14
2022-08-02T04:08:35.856Z,1014.16
2022-08-02T04:09:23.681Z,1014.16
2022-08-02T04:10:21.690Z,1014.18
2022-08-02T04:11:21.653Z,1014.14
2022-08-02T04:12:21.646Z,1014.19
2022-08-02T04:13:21.637Z,1014.14
2022-08-02T04:14:21.678Z,1014.17
2022-08-02T04:15:21.604Z,1014.19
2022-08-02T04:16:21.606Z,1014.12
2022-08-02T04:17:21.582Z,1014.18
2022-08-02T04:18:21.568Z,1014.14
2022-08-02T04:19:21.602Z,1014.16
2022-08-02T04:20:21.582Z,1014.19
2022-08-02T04:21:21.559Z,1014.21
2022-08-02T04:22:21.549Z,1014.19
2022-08-02T04:23:21.540Z,1014.21
2022-08-02T04:24:24.527Z,1014.21
2022-08-02T04:25:21.513Z,1014.27
2022-08-02T04:26:26.921Z,1014.24
2022-08-02T04:28:15.692Z,1014.25
2022-08-02T04:28:27.629Z,1014.23
2022-08-02T04:29:22.519Z,1014.27
2022-08-02T04:30:21.455Z,1014.20
2022-08-02T04:31:22.420Z,1014.27
2022-08-02T04:32:21.468Z,1014.23
2022-08-02T04:33:21.434Z,1014.29
2022-08-02T04:34:21.413Z,1014.23
2022-08-02T04:35:21.394Z,1014.23
2022-08-02T04:36:30.692Z,1014.24
2022-08-02T04:37:22.394Z,1014.21
2022-08-02T04:38:21.349Z,1014.22
2022-08-02T04:39:21.386Z,1014.17
2022-08-02T04:40:21.333Z,1014.22
2022-08-02T04:41:21.324Z,1014.27
2022-08-02T04:42:21.330Z,1014.22
2022-08-02T04:43:21.296Z,1014.18
2022-08-02T04:44:22.227Z,1014.18
2022-08-02T04:45:21.287Z,1014.17
2022-08-02T04:46:21.275Z,1014.20
2022-08-02T04:47:54.039Z,1014.18
2022-08-02T04:48:22.237Z,1014.22
2022-08-02T04:49:21.328Z,1014.30
2022-08-02T04:50:21.226Z,1014.19
2022-08-02T04:51:21.219Z,1014.27
2022-08-02T04:52:22.194Z,1014.27
2022-08-02T04:53:21.189Z,1014.32
2022-08-02T04:54:21.197Z,1014.32
2022-08-02T04:55:21.190Z,1014.33
2022-08-02T04:56:21.147Z,1014.36
2022-08-02T04:57:21.140Z,1014.37
2022-08-02T04:58:39.937Z,1014.37
2022-08-02T04:59:22.143Z,1014.43
2022-08-02T05:00:21.135Z,1014.37
2022-08-02T05:01:21.116Z,1014.42
2022-08-02T05:02:21.075Z,1014.42
2022-08-02T05:03:21.069Z,1014.37
2022-08-02T05:04:21.081Z,1014.35
2022-08-02T05:05:21.081Z,1014.31
2022-08-02T05:06:21.055Z,1014.39
2022-08-02T05:07:21.060Z,1014.40
2022-08-02T05:08:21.049Z,1014.37
2022-08-02T05:09:21.002Z,1014.31
2022-08-02T05:10:21.004Z,1014.28
2022-08-02T05:11:20.985Z,1014.28
2022-08-02T05:12:20.989Z,1014.28
2022-08-02T05:13:20.958Z,1014.24
2022-08-02T05:14:20.964Z,1014.25
2022-08-02T05:15:20.943Z,1014.27
2022-08-02T05:16:20.926Z,1014.28
2022-08-02T05:17:21.924Z,1014.28
2022-08-02T05:18:20.930Z,1014.28
2022-08-02T05:19:20.946Z,1014.27
2022-08-02T05:20:20.888Z,1014.28
2022-08-02T05:21:20.905Z,1014.26
2022-08-02T05:22:20.871Z,1014.25
2022-08-02T05:23:20.849Z,1014.23
2022-08-02T05:24:20.848Z,1014.26
2022-08-02T05:25:20.879Z,1014.33
2022-08-02T05:26:20.849Z,1014.27
2022-08-02T05:27:21.482Z,1014.26
2022-08-02T05:28:20.796Z,1014.27
2022-08-02T05:29:20.790Z,1014.26
2022-08-02T05:30:20.799Z,1014.29
2022-08-02T05:31:20.769Z,1014.30
2022-08-02T05:32:20.758Z,1014.31
2022-08-02T05:33:20.751Z,1014.32
2022-08-02T05:34:20.802Z,1014.27
2022-08-02T05:35:20.719Z,1014.29
2022-08-02T05:36:21.599Z,1014.26
2022-08-02T05:37:20.702Z,1014.24
2022-08-02T05:38:24.487Z,1014.29
2022-08-02T05:39:21.714Z,1014.25
2022-08-02T05:40:25.377Z,1014.28
2022-08-02T05:41:21.666Z,1014.29
2022-08-02T05:42:20.645Z,1014.28
2022-08-02T05:43:20.993Z,1014.29
2022-08-02T05:44:20.623Z,1014.29
2022-08-02T05:45:20.675Z,1014.28
2022-08-02T05:46:20.598Z,1014.30
2022-08-02T05:47:20.615Z,1014.29
2022-08-02T05:48:20.596Z,1014.32
2022-08-02T05:49:20.620Z,1014.27
2022-08-02T05:50:20.577Z,1014.27
2022-08-02T05:51:20.584Z,1014.29
2022-08-02T05:52:20.525Z,1014.29
2022-08-02T05:53:20.525Z,1014.24
2022-08-02T05:54:20.496Z,1014.21
2022-08-02T05:55:20.504Z,1014.28
2022-08-02T05:56:20.507Z,1014.24
2022-08-02T05:57:20.487Z,1014.23
2022-08-02T05:58:20.470Z,1014.20
2022-08-02T05:59:20.527Z,1014.19
2022-08-02T06:00:20.440Z,1014.19
2022-08-02T06:01:20.503Z,1014.16
2022-08-02T06:02:20.719Z,1014.18
2022-08-02T06:03:20.408Z,1014.15
2022-08-02T06:04:20.401Z,1014.15
2022-08-02T06:05:20.402Z,1014.20
2022-08-02T06:06:20.393Z,1014.15
2022-08-02T06:07:20.421Z,1014.17
2022-08-02T06:08:20.372Z,1014.22
2022-08-02T06:09:26.977Z,1014.20
2022-08-02T06:10:21.334Z,1014.14
2022-08-02T06:11:20.355Z,1014.22
2022-08-02T06:12:20.313Z,1014.15
2022-08-02T06:13:20.321Z,1014.12
2022-08-02T06:14:20.296Z,1014.15
2022-08-02T06:15:20.273Z,1014.08
2022-08-02T06:16:32.345Z,1014.10
2022-08-02T06:17:21.285Z,1014.15
2022-08-02T06:18:28.027Z,1014.10
2022-08-02T06:19:21.244Z,1014.16
2022-08-02T06:20:20.214Z,1014.11
2022-08-02T06:22:32.820Z,1014.09
2022-08-02T06:22:34.022Z,1014.14
2022-08-02T06:23:23.639Z,1014.10
2022-08-02T06:24:20.195Z,1014.15
2022-08-02T06:25:49.695Z,1014.11
2022-08-02T06:26:21.166Z,1014.12
2022-08-02T06:27:20.243Z,1014.10
2022-08-02T06:28:20.142Z,1014.11
2022-08-02T06:29:20.121Z,1014.10
2022-08-02T06:30:20.111Z,1014.15
2022-08-02T06:31:20.099Z,1014.10
2022-08-02T06:32:20.078Z,1014.10
2022-08-02T06:33:20.100Z,1014.13
2022-08-02T06:34:20.066Z,1014.09
2022-08-02T06:35:20.058Z,1014.14
2022-08-02T06:36:20.064Z,1014.13
2022-08-02T06:37:20.030Z,1014.12
2022-08-02T06:38:20.083Z,1014.07
2022-08-02T06:39:20.015Z,1014.13
2022-08-02T06:40:20.013Z,1014.01
2022-08-02T06:41:19.980Z,1014.09
2022-08-02T06:42:27.038Z,1014.08
2022-08-02T06:43:20.992Z,1014.10
2022-08-02T06:44:46.000Z,1014.17
2022-08-02T06:45:20.947Z,1014.17
2022-08-02T06:47:09.129Z,1014.16
2022-08-02T06:47:20.916Z,1014.15
2022-08-02T06:48:19.908Z,1014.15
2022-08-02T06:49:19.965Z,1014.18
2022-08-02T06:50:19.904Z,1014.13
2022-08-02T06:51:19.867Z,1014.12
2022-08-02T06:52:22.302Z,1014.13
2022-08-02T06:53:20.859Z,1014.10
2022-08-02T06:54:40.839Z,1014.09
2022-08-02T06:55:19.865Z,1014.07
2022-08-02T06:56:19.815Z,1014.09
2022-08-02T06:57:19.806Z,1014.05
2022-08-02T06:58:19.836Z,1014.07
2022-08-02T06:59:19.870Z,1014.08
2022-08-02T07:00:19.786Z,1014.10
2022-08-02T07:01:19.977Z,1014.12
2022-08-02T07:02:20.744Z,1014.15
2022-08-02T07:03:19.762Z,1014.15
2022-08-02T07:04:20.347Z,1014.14
2022-08-02T07:05:19.709Z,1014.13
2022-08-02T07:06:19.708Z,1014.13
2022-08-02T07:07:19.740Z,1014.14
2022-08-02T07:08:19.736Z,1014.14
2022-08-02T07:09:21.354Z,1014.12
2022-08-02T07:10:19.681Z,1014.17
2022-08-02T07:11:19.661Z,1014.11
2022-08-02T07:12:19.644Z,1014.17
2022-08-02T07:13:19.643Z,1014.12
2022-08-02T07:14:19.643Z,1014.14
2022-08-02T07:15:19.645Z,1014.06
2022-08-02T07:16:19.603Z,1014.06
2022-08-02T07:17:19.596Z,1014.05
2022-08-02T07:18:19.601Z,1014.05
2022-08-02T07:19:19.573Z,1014.05
2022-08-02T07:20:19.582Z,1014.04
2022-08-02T07:21:19.611Z,1014.05
2022-08-02T07:22:20.539Z,1014.08
2022-08-02T07:23:19.545Z,1014.03
2022-08-02T07:24:19.516Z,1014.07
2022-08-02T07:25:19.533Z,1014.02
2022-08-02T07:26:19.487Z,1014.04
2022-08-02T07:27:19.486Z,1014.07
2022-08-02T07:28:24.361Z,1014.05
2022-08-02T07:29:20.485Z,1014.03
2022-08-02T07:30:19.490Z,1014.05
2022-08-02T07:31:19.425Z,1014.04
2022-08-02T07:32:19.441Z,1014.02
2022-08-02T07:33:38.458Z,1014.07
2022-08-02T07:34:20.398Z,1014.05
2022-08-02T07:35:19.948Z,1014.10
2022-08-02T07:36:22.815Z,1014.08
2022-08-02T07:37:35.711Z,1014.10
2022-08-02T07:38:20.378Z,1014.12
2022-08-02T07:39:19.345Z,1014.10
2022-08-02T07:40:19.960Z,1014.07
2022-08-02T07:41:19.348Z,1014.08
2022-08-02T07:42:19.320Z,1014.07
2022-08-02T07:43:19.310Z,1014.04
2022-08-02T07:44:19.323Z,1014.02
2022-08-02T07:45:19.321Z,1014.00
2022-08-02T07:46:19.285Z,1014.03
2022-08-02T07:47:19.254Z,1014.02
2022-08-02T07:48:19.337Z,1014.09
2022-08-02T07:49:19.266Z,1014.09
2022-08-02T07:50:19.233Z,1014.08
2022-08-02T07:51:19.225Z,1014.07
2022-08-02T07:52:19.282Z,1014.01
2022-08-02T07:53:19.231Z,1014.02
2022-08-02T07:54:19.187Z,1013.93
2022-08-02T07:55:19.167Z,1013.88
2022-08-02T07:56:19.195Z,1013.88
2022-08-02T07:57:19.146Z,1013.86
2022-08-02T07:58:19.137Z,1013.88
2022-08-02T07:59:19.118Z,1013.88
2022-08-02T08:00:19.118Z,1013.88
2022-08-02T08:01:19.268Z,1013.85
2022-08-02T08:02:19.137Z,1013.88
2022-08-02T08:03:19.102Z,1013.86
2022-08-02T08:04:19.079Z,1013.86
2022-08-02T08:05:19.060Z,1013.90
2022-08-02T08:06:19.081Z,1013.87
2022-08-02T08:07:20.060Z,1013.87
2022-08-02T08:08:19.085Z,1013.91
2022-08-02T08:09:19.021Z,1013.88
2022-08-02T08:10:19.019Z,1013.93
2022-08-02T08:11:18.997Z,1013.86
2022-08-02T08:12:19.247Z,1013.91
2022-08-02T08:13:18.973Z,1013.90
2022-08-02T08:14:19.001Z,1013.85
2022-08-02T08:15:18.957Z,1013.87
2022-08-02T08:16:18.944Z,1013.84
2022-08-02T08:17:18.976Z,1013.76
2022-08-02T08:18:18.982Z,1013.82
2022-08-02T08:19:18.934Z,1013.80
2022-08-02T08:20:18.931Z,1013.77
2022-08-02T08:21:18.887Z,1013.76
2022-08-02T08:22:18.878Z,1013.79
2022-08-02T08:23:18.868Z,1013.77
2022-08-02T08:24:18.870Z,1013.74
2022-08-02T08:25:18.881Z,1013.77
2022-08-02T08:26:18.839Z,1013.73
2022-08-02T08:27:18.815Z,1013.76
2022-08-02T08:28:18.850Z,1013.75
2022-08-02T08:29:18.997Z,1013.74
2022-08-02T08:30:18.805Z,1013.74
2022-08-02T08:31:18.812Z,1013.69
2022-08-02T08:32:19.145Z,1013.73
2022-08-02T08:33:18.781Z,1013.70
2022-08-02T08:34:18.774Z,1013.69
2022-08-02T08:35:18.750Z,1013.71
2022-08-02T08:36:18.770Z,1013.73
2022-08-02T08:37:18.918Z,1013.70
2022-08-02T08:38:18.733Z,1013.70
2022-08-02T08:39:18.690Z,1013.70
2022-08-02T08:40:19.363Z,1013.68
2022-08-02T08:41:18.682Z,1013.72
2022-08-02T08:42:19.355Z,1013.78
2022-08-02T08:43:18.643Z,1013.75
2022-08-02T08:44:18.644Z,1013.77
2022-08-02T08:45:18.654Z,1013.78
2022-08-02T08:46:18.640Z,1013.75
2022-08-02T08:47:18.644Z,1013.78
2022-08-02T08:48:25.758Z,1013.73
2022-08-02T08:49:19.652Z,1013.75
2022-08-02T08:50:24.089Z,1013.74
2022-08-02T08:51:19.577Z,1013.73
2022-08-02T08:52:18.574Z,1013.77
2022-08-02T08:53:18.570Z,1013.76
2022-08-02T08:54:18.606Z,1013.79
2022-08-02T08:55:18.522Z,1013.73
2022-08-02T08:56:18.518Z,1013.72
2022-08-02T08:57:18.486Z,1013.76
2022-08-02T08:58:18.495Z,1013.74
2022-08-02T08:59:18.509Z,1013.71
2022-08-02T09:00:18.542Z,1013.75
2022-08-02T09:01:18.513Z,1013.71
2022-08-02T09:02:21.405Z,1013.67
2022-08-02T09:03:19.444Z,1013.68
2022-08-02T09:04:18.461Z,1013.68
2022-08-02T09:05:18.414Z,1013.67
2022-08-02T09:06:18.393Z,1013.69
2022-08-02T09:07:18.396Z,1013.70
2022-08-02T09:08:18.385Z,1013.64
2022-08-02T09:09:18.371Z,1013.64
2022-08-02T09:10:18.478Z,1013.64
2022-08-02T09:11:18.361Z,1013.64
2022-08-02T09:12:18.391Z,1013.65
2022-08-02T09:13:38.390Z,1013.67
2022-08-02T09:14:19.420Z,1013.63
2022-08-02T09:15:18.326Z,1013.61
2022-08-02T09:16:18.287Z,1013.61
2022-08-02T09:17:18.293Z,1013.56
2022-08-02T09:18:18.266Z,1013.53
2022-08-02T09:19:18.256Z,1013.51
2022-08-02T09:20:18.292Z,1013.57
2022-08-02T09:21:18.230Z,1013.59
2022-08-02T09:22:18.237Z,1013.53
2022-08-02T09:23:18.230Z,1013.59
2022-08-02T09:24:18.218Z,1013.53
2022-08-02T09:25:18.204Z,1013.50
2022-08-02T09:26:18.204Z,1013.49
2022-08-02T09:27:18.198Z,1013.55
2022-08-02T09:28:18.162Z,1013.57
2022-08-02T09:29:18.160Z,1013.58
2022-08-02T09:30:18.147Z,1013.54
2022-08-02T09:31:18.145Z,1013.54
2022-08-02T09:32:18.122Z,1013.56
2022-08-02T09:33:18.161Z,1013.54
2022-08-02T09:34:19.705Z,1013.52
2022-08-02T09:35:18.078Z,1013.56
2022-08-02T09:36:18.082Z,1013.52
2022-08-02T09:37:18.089Z,1013.53
2022-08-02T09:38:18.066Z,1013.51
2022-08-02T09:39:18.074Z,1013.50
2022-08-02T09:40:18.047Z,1013.50
2022-08-02T09:41:18.263Z,1013.51
2022-08-02T09:42:18.006Z,1013.54
2022-08-02T09:43:17.998Z,1013.49
2022-08-02T09:44:17.994Z,1013.53
2022-08-02T09:45:18.017Z,1013.53
2022-08-02T09:46:17.969Z,1013.54
2022-08-02T09:47:18.959Z,1013.51
2022-08-02T09:48:17.949Z,1013.51
2022-08-02T09:49:18.081Z,1013.45
2022-08-02T09:50:18.005Z,1013.47
2022-08-02T09:51:17.899Z,1013.39
2022-08-02T09:52:17.923Z,1013.41
2022-08-02T09:53:17.881Z,1013.39
2022-08-02T09:54:17.872Z,1013.42
2022-08-02T09:55:17.891Z,1013.39
2022-08-02T09:56:30.190Z,1013.38
2022-08-02T09:57:18.846Z,1013.36
2022-08-02T09:58:17.839Z,1013.42
2022-08-02T09:59:18.462Z,1013.37
2022-08-02T10:00:27.034Z,1013.41
2022-08-02T10:01:18.810Z,1013.53
2022-08-02T10:02:22.845Z,1013.43
2022-08-02T10:03:21.951Z,1013.33
2022-08-02T10:04:21.741Z,1013.35
2022-08-02T10:05:17.754Z,1013.35
2022-08-02T10:06:17.772Z,1013.39
2022-08-02T10:07:17.746Z,1013.37
2022-08-02T10:08:17.742Z,1013.36
2022-08-02T10:09:17.729Z,1013.38
2022-08-02T10:10:17.741Z,1013.35
2022-08-02T10:11:17.721Z,1013.36
2022-08-02T10:12:17.680Z,1013.41
2022-08-02T10:13:20.204Z,1013.43
2022-08-02T10:14:17.648Z,1013.44
2022-08-02T10:15:17.638Z,1013.32
2022-08-02T10:16:17.668Z,1013.32
2022-08-02T10:17:17.682Z,1013.38
2022-08-02T10:18:37.086Z,1013.33
2022-08-02T10:19:18.610Z,1013.33
2022-08-02T10:20:18.594Z,1013.28
2022-08-02T10:21:17.570Z,1013.36
2022-08-02T10:22:19.750Z,1013.35
2022-08-02T10:23:17.581Z,1013.35
2022-08-02T10:24:17.551Z,1013.37
2022-08-02T10:25:17.531Z,1013.27
2022-08-02T10:26:17.532Z,1013.29
2022-08-02T10:27:17.513Z,1013.20
2022-08-02T10:28:17.578Z,1013.23
2022-08-02T10:29:17.515Z,1013.26
2022-08-02T10:30:17.483Z,1013.21
2022-08-02T10:31:17.471Z,1013.22
2022-08-02T10:32:17.484Z,1013.25
2022-08-02T10:33:17.444Z,1013.17
2022-08-02T10:34:17.474Z,1013.23
2022-08-02T10:35:20.073Z,1013.21
2022-08-02T10:36:18.418Z,1013.15
2022-08-02T10:37:17.438Z,1013.16
2022-08-02T10:38:17.406Z,1013.15
2022-08-02T10:39:17.396Z,1013.16
2022-08-02T10:40:17.372Z,1013.15
2022-08-02T10:41:17.385Z,1013.12
2022-08-02T10:42:17.347Z,1013.06
2022-08-02T10:43:17.368Z,1013.06
2022-08-02T10:44:24.783Z,1013.04
2022-08-02T10:45:18.326Z,1013.07
2022-08-02T10:46:17.354Z,1013.12
2022-08-02T10:47:17.319Z,1013.07
2022-08-02T10:48:17.318Z,1013.08
2022-08-02T10:49:39.164Z,1013.06
2022-08-02T10:50:18.295Z,1013.09
2022-08-02T10:51:17.262Z,1013.09
2022-08-02T10:52:18.272Z,1013.10
2022-08-02T10:53:17.232Z,1013.08
2022-08-02T10:54:17.223Z,1013.08
2022-08-02T10:55:22.377Z,1013.10
2022-08-02T10:56:18.205Z,1013.04
2022-08-02T10:57:17.193Z,1013.08
2022-08-02T10:58:17.193Z,1013.07
2022-08-02T10:59:17.211Z,1013.09
2022-08-02T11:00:17.337Z,1013.00
2022-08-02T11:01:17.218Z,1013.00
2022-08-02T11:02:17.510Z,1013.08
2022-08-02T11:03:17.186Z,1013.03
2022-08-02T11:04:17.113Z,1013.07
2022-08-02T11:05:17.096Z,1013.04
2022-08-02T11:06:25.674Z,1013.03
2022-08-02T11:07:18.091Z,1013.07
2022-08-02T11:08:17.069Z,1013.09
2022-08-02T11:09:17.106Z,1012.98
2022-08-02T11:10:17.059Z,1012.98
2022-08-02T11:11:17.036Z,1012.96
2022-08-02T11:12:17.044Z,1013.00
2022-08-02T11:13:18.982Z,1013.04
2022-08-02T11:14:17.017Z,1013.04
2022-08-02T11:15:17.041Z,1013.04
2022-08-02T11:16:16.991Z,1012.98
2022-08-02T11:17:16.968Z,1013.00
2022-08-02T11:18:16.965Z,1012.96
2022-08-02T11:19:16.982Z,1013.02
2022-08-02T11:20:16.959Z,1012.99
2022-08-02T11:21:16.927Z,1013.03
2022-08-02T11:22:16.933Z,1013.08
2022-08-02T11:23:17.871Z,1013.02
2022-08-02T11:24:16.898Z,1013.05
2022-08-02T11:25:16.915Z,1013.07
2022-08-02T11:26:16.874Z,1013.02
2022-08-02T11:27:16.876Z,1013.01
2022-08-02T11:28:20.719Z,1013.02
2022-08-02T11:29:17.866Z,1012.93
2022-08-02T11:30:16.849Z,1013.00
2022-08-02T11:31:16.859Z,1013.01
2022-08-02T11:32:16.820Z,1012.93
2022-08-02T11:33:17.749Z,1012.94
2022-08-02T11:34:37.382Z,1012.92
2022-08-02T11:35:17.779Z,1012.97
2022-08-02T11:36:16.780Z,1012.99
2022-08-02T11:37:16.780Z,1012.89
2022-08-02T11:38:16.771Z,1012.95
2022-08-02T11:39:16.761Z,1012.85
2022-08-02T11:40:19.810Z,1012.88
2022-08-02T11:41:16.734Z,1012.89
2022-08-02T11:42:17.715Z,1012.95
2022-08-02T11:43:17.663Z,1012.91
2022-08-02T11:44:16.691Z,1012.93
2022-08-02T11:45:21.439Z,1012.96
2022-08-02T11:46:17.664Z,1012.91
2022-08-02T11:47:16.654Z,1012.93
2022-08-02T11:48:16.646Z,1012.92
2022-08-02T11:49:16.873Z,1012.94
2022-08-02T11:50:16.639Z,1012.90
2022-08-02T11:51:16.617Z,1012.96
2022-08-02T11:52:16.733Z,1012.93
2022-08-02T11:53:16.583Z,1012.97
2022-08-02T11:54:16.576Z,1012.93
2022-08-02T11:55:16.593Z,1012.94
2022-08-02T11:56:21.744Z,1012.98
2022-08-02T11:57:20.059Z,1012.93
2022-08-02T11:58:16.541Z,1012.86
2022-08-02T11:59:16.521Z,1012.89
2022-08-02T12:00:16.549Z,1012.90
2022-08-02T12:01:16.512Z,1012.96
2022-08-02T12:02:16.524Z,1012.85
2022-08-02T12:03:19.762Z,1012.90
2022-08-02T12:04:16.491Z,1012.89
2022-08-02T12:05:16.491Z,1012.92